sensor_id;sensor_type;location;lat;lon;timestamp;P1;durP1;ratioP1;P2;durP2;ratioP2
35562;SDS011;21665;40.108;18.302;2023-02-28T00:01:31;93.88;;;16.08;;
35562;SDS011;21665;40.108;18.302;2023-02-28T00:03:59;111.93;;;17.20;;
35562;SDS011;21665;40.108;18.302;2023-02-28T00:06:25;87.30;;;14.45;;
35562;SDS011;21665;40.108;18.302;2023-02-28T00:08:52;93.45;;;15.02;;
35562;SDS011;21665;40.108;18.302;2023-02-28T00:11:18;113.53;;;14.75;;
35562;SDS011;21665;40.108;18.302;2023-02-28T00:13:47;109.68;;;16.70;;
35562;SDS011;21665;40.108;18.302;2023-02-28T00:16:16;85.22;;;14.02;;
35562;SDS011;21665;40.108;18.302;2023-02-28T00:18:47;106.53;;;14.70;;
35562;SDS011;21665;40.108;18.302;2023-02-28T00:21:13;118.88;;;15.00;;
35562;SDS011;21665;40.108;18.302;2023-02-28T00:23:41;94.55;;;13.93;;
35562;SDS011;21665;40.108;18.302;2023-02-28T00:26:07;103.30;;;15.43;;
35562;SDS011;21665;40.108;18.302;2023-02-28T00:28:36;103.53;;;14.70;;
35562;SDS011;21665;40.108;18.302;2023-02-28T00:31:03;114.80;;;14.98;;
35562;SDS011;21665;40.108;18.302;2023-02-28T00:33:30;142.45;;;16.42;;
35562;SDS011;21665;40.108;18.302;2023-02-28T00:36:03;87.90;;;14.52;;
35562;SDS011;21665;40.108;18.302;2023-02-28T00:38:31;117.38;;;15.75;;
35562;SDS011;21665;40.108;18.302;2023-02-28T00:40:59;132.05;;;16.10;;
35562;SDS011;21665;40.108;18.302;2023-02-28T00:43:33;107.10;;;14.43;;
35562;SDS011;21665;40.108;18.302;2023-02-28T00:46:03;100.47;;;13.63;;
35562;SDS011;21665;40.108;18.302;2023-02-28T00:48:30;144.13;;;17.58;;
35562;SDS011;21665;40.108;18.302;2023-02-28T00:50:57;114.28;;;15.40;;
35562;SDS011;21665;40.108;18.302;2023-02-28T00:53:24;121.07;;;15.35;;
35562;SDS011;21665;40.108;18.302;2023-02-28T00:55:51;118.10;;;17.30;;
35562;SDS011;21665;40.108;18.302;2023-02-28T00:58:17;129.23;;;15.82;;
35562;SDS011;21665;40.108;18.302;2023-02-28T01:00:44;141.73;;;17.38;;
35562;SDS011;21665;40.108;18.302;2023-02-28T01:03:17;123.63;;;17.23;;
35562;SDS011;21665;40.108;18.302;2023-02-28T01:05:44;119.88;;;16.08;;
35562;SDS011;21665;40.108;18.302;2023-02-28T01:08:12;122.85;;;17.27;;
35562;SDS011;21665;40.108;18.302;2023-02-28T01:10:40;144.07;;;16.92;;
35562;SDS011;21665;40.108;18.302;2023-02-28T01:13:07;119.60;;;15.80;;
35562;SDS011;21665;40.108;18.302;2023-02-28T01:15:36;141.00;;;16.58;;
35562;SDS011;21665;40.108;18.302;2023-02-28T01:18:04;129.30;;;17.33;;
35562;SDS011;21665;40.108;18.302;2023-02-28T01:20:30;118.75;;;15.27;;
35562;SDS011;21665;40.108;18.302;2023-02-28T01:22:57;123.47;;;15.98;;
35562;SDS011;21665;40.108;18.302;2023-02-28T01:25:23;98.90;;;14.85;;
35562;SDS011;21665;40.108;18.302;2023-02-28T01:27:50;122.68;;;14.65;;
35562;SDS011;21665;40.108;18.302;2023-02-28T01:30:21;119.38;;;15.95;;
35562;SDS011;21665;40.108;18.302;2023-02-28T01:32:48;97.10;;;14.93;;
35562;SDS011;21665;40.108;18.302;2023-02-28T01:35:17;101.28;;;14.95;;
35562;SDS011;21665;40.108;18.302;2023-02-28T01:37:44;109.30;;;15.73;;
35562;SDS011;21665;40.108;18.302;2023-02-28T01:40:11;143.52;;;18.45;;
35562;SDS011;21665;40.108;18.302;2023-02-28T01:42:38;105.50;;;15.27;;
35562;SDS011;21665;40.108;18.302;2023-02-28T01:47:44;112.05;;;14.20;;
35562;SDS011;21665;40.108;18.302;2023-02-28T01:50:16;92.63;;;13.73;;
35562;SDS011;21665;40.108;18.302;2023-02-28T01:52:46;123.35;;;15.38;;
35562;SDS011;21665;40.108;18.302;2023-02-28T01:55:15;102.93;;;17.38;;
35562;SDS011;21665;40.108;18.302;2023-02-28T01:57:46;118.10;;;14.60;;
35562;SDS011;21665;40.108;18.302;2023-02-28T02:00:19;91.28;;;13.73;;
35562;SDS011;21665;40.108;18.302;2023-02-28T02:02:50;115.47;;;16.05;;
35562;SDS011;21665;40.108;18.302;2023-02-28T02:05:23;113.25;;;14.85;;
35562;SDS011;21665;40.108;18.302;2023-02-28T02:07:54;115.07;;;14.93;;
35562;SDS011;21665;40.108;18.302;2023-02-28T02:10:41;105.88;;;13.15;;
35562;SDS011;21665;40.108;18.302;2023-02-28T02:13:34;122.57;;;15.57;;
35562;SDS011;21665;40.108;18.302;2023-02-28T02:24:49;117.28;;;14.63;;
35562;SDS011;21665;40.108;18.302;2023-02-28T02:38:21;127.25;;;16.25;;
35562;SDS011;21665;40.108;18.302;2023-02-28T02:46:18;106.68;;;13.70;;
35562;SDS011;21665;40.108;18.302;2023-02-28T02:48:52;104.15;;;14.10;;
35562;SDS011;21665;40.108;18.302;2023-02-28T02:51:22;128.13;;;16.88;;
35562;SDS011;21665;40.108;18.302;2023-02-28T02:53:52;117.32;;;14.85;;
35562;SDS011;21665;40.108;18.302;2023-02-28T02:56:27;119.70;;;16.08;;
35562;SDS011;21665;40.108;18.302;2023-02-28T02:58:58;124.95;;;16.00;;
35562;SDS011;21665;40.108;18.302;2023-02-28T03:01:29;124.50;;;15.68;;
35562;SDS011;21665;40.108;18.302;2023-02-28T03:03:59;109.50;;;14.02;;
35562;SDS011;21665;40.108;18.302;2023-02-28T03:06:28;115.95;;;14.65;;
35562;SDS011;21665;40.108;18.302;2023-02-28T03:08:55;108.05;;;16.25;;
35562;SDS011;21665;40.108;18.302;2023-02-28T03:11:22;113.25;;;14.60;;
35562;SDS011;21665;40.108;18.302;2023-02-28T03:13:59;117.78;;;14.77;;
35562;SDS011;21665;40.108;18.302;2023-02-28T03:24:53;129.45;;;15.68;;
35562;SDS011;21665;40.108;18.302;2023-02-28T03:27:27;134.82;;;18.77;;
35562;SDS011;21665;40.108;18.302;2023-02-28T03:32:42;131.95;;;14.90;;
35562;SDS011;21665;40.108;18.302;2023-02-28T03:35:21;163.25;;;19.13;;
35562;SDS011;21665;40.108;18.302;2023-02-28T03:41:14;148.52;;;16.75;;
35562;SDS011;21665;40.108;18.302;2023-02-28T03:43:43;145.05;;;16.35;;
35562;SDS011;21665;40.108;18.302;2023-02-28T03:46:17;154.25;;;17.33;;
35562;SDS011;21665;40.108;18.302;2023-02-28T03:48:49;120.10;;;15.65;;
35562;SDS011;21665;40.108;18.302;2023-02-28T03:51:22;122.80;;;16.17;;
35562;SDS011;21665;40.108;18.302;2023-02-28T03:53:50;126.82;;;16.02;;
35562;SDS011;21665;40.108;18.302;2023-02-28T03:56:32;141.95;;;17.70;;
35562;SDS011;21665;40.108;18.302;2023-02-28T03:59:12;128.68;;;16.67;;
35562;SDS011;21665;40.108;18.302;2023-02-28T04:02:09;139.43;;;15.77;;
35562;SDS011;21665;40.108;18.302;2023-02-28T04:04:36;147.80;;;14.93;;
35562;SDS011;21665;40.108;18.302;2023-02-28T04:07:06;116.90;;;14.63;;
35562;SDS011;21665;40.108;18.302;2023-02-28T04:09:34;115.95;;;15.77;;
35562;SDS011;21665;40.108;18.302;2023-02-28T04:12:00;126.57;;;15.48;;
35562;SDS011;21665;40.108;18.302;2023-02-28T04:14:26;119.20;;;14.13;;
35562;SDS011;21665;40.108;18.302;2023-02-28T04:16:53;107.70;;;14.52;;
35562;SDS011;21665;40.108;18.302;2023-02-28T04:19:19;112.15;;;14.55;;
35562;SDS011;21665;40.108;18.302;2023-02-28T04:21:47;129.65;;;15.35;;
35562;SDS011;21665;40.108;18.302;2023-02-28T04:24:17;125.63;;;15.38;;
35562;SDS011;21665;40.108;18.302;2023-02-28T04:26:45;100.05;;;13.82;;
35562;SDS011;21665;40.108;18.302;2023-02-28T04:29:18;144.75;;;16.02;;
35562;SDS011;21665;40.108;18.302;2023-02-28T04:31:47;135.23;;;16.33;;
35562;SDS011;21665;40.108;18.302;2023-02-28T04:34:16;112.45;;;14.55;;
35562;SDS011;21665;40.108;18.302;2023-02-28T04:36:44;133.85;;;17.33;;
35562;SDS011;21665;40.108;18.302;2023-02-28T04:39:11;133.27;;;15.15;;
35562;SDS011;21665;40.108;18.302;2023-02-28T04:41:41;117.38;;;15.90;;
35562;SDS011;21665;40.108;18.302;2023-02-28T04:44:07;118.38;;;14.68;;
35562;SDS011;21665;40.108;18.302;2023-02-28T04:46:35;129.65;;;15.68;;
35562;SDS011;21665;40.108;18.302;2023-02-28T04:49:02;124.50;;;16.25;;
35562;SDS011;21665;40.108;18.302;2023-02-28T04:51:28;125.78;;;15.82;;
35562;SDS011;21665;40.108;18.302;2023-02-28T04:53:55;108.32;;;14.82;;
35562;SDS011;21665;40.108;18.302;2023-02-28T04:56:21;121.90;;;15.23;;
35562;SDS011;21665;40.108;18.302;2023-02-28T04:58:48;136.98;;;17.05;;
35562;SDS011;21665;40.108;18.302;2023-02-28T05:03:48;126.40;;;15.90;;
35562;SDS011;21665;40.108;18.302;2023-02-28T05:06:16;122.78;;;15.43;;
35562;SDS011;21665;40.108;18.302;2023-02-28T05:08:43;115.55;;;13.60;;
35562;SDS011;21665;40.108;18.302;2023-02-28T05:11:17;121.65;;;13.85;;
35562;SDS011;21665;40.108;18.302;2023-02-28T05:13:49;114.15;;;14.30;;
35562;SDS011;21665;40.108;18.302;2023-02-28T05:16:19;112.97;;;14.77;;
35562;SDS011;21665;40.108;18.302;2023-02-28T05:18:46;116.55;;;14.30;;
35562;SDS011;21665;40.108;18.302;2023-02-28T05:24:08;137.30;;;15.38;;
35562;SDS011;21665;40.108;18.302;2023-02-28T05:26:37;124.82;;;15.18;;
35562;SDS011;21665;40.108;18.302;2023-02-28T05:29:07;133.25;;;14.55;;
35562;SDS011;21665;40.108;18.302;2023-02-28T05:31:35;112.28;;;14.80;;
35562;SDS011;21665;40.108;18.302;2023-02-28T05:34:03;146.60;;;24.30;;
35562;SDS011;21665;40.108;18.302;2023-02-28T05:36:30;101.13;;;13.88;;
35562;SDS011;21665;40.108;18.302;2023-02-28T05:38:57;106.90;;;15.85;;
35562;SDS011;21665;40.108;18.302;2023-02-28T05:41:23;110.30;;;15.05;;
35562;SDS011;21665;40.108;18.302;2023-02-28T05:43:51;123.13;;;15.43;;
35562;SDS011;21665;40.108;18.302;2023-02-28T05:46:18;112.30;;;15.13;;
35562;SDS011;21665;40.108;18.302;2023-02-28T05:48:46;94.53;;;14.48;;
35562;SDS011;21665;40.108;18.302;2023-02-28T05:51:16;105.40;;;16.13;;
35562;SDS011;21665;40.108;18.302;2023-02-28T05:53:43;112.80;;;14.60;;
35562;SDS011;21665;40.108;18.302;2023-02-28T05:56:09;103.03;;;15.93;;
35562;SDS011;21665;40.108;18.302;2023-02-28T05:58:38;127.13;;;16.42;;
35562;SDS011;21665;40.108;18.302;2023-02-28T06:01:21;118.28;;;17.08;;
35562;SDS011;21665;40.108;18.302;2023-02-28T06:04:06;107.68;;;15.02;;
35562;SDS011;21665;40.108;18.302;2023-02-28T06:09:39;96.53;;;15.05;;
35562;SDS011;21665;40.108;18.302;2023-02-28T06:12:06;120.22;;;16.05;;
35562;SDS011;21665;40.108;18.302;2023-02-28T06:14:35;99.35;;;14.27;;
35562;SDS011;21665;40.108;18.302;2023-02-28T06:17:02;88.88;;;14.35;;
35562;SDS011;21665;40.108;18.302;2023-02-28T06:19:29;120.30;;;17.67;;
35562;SDS011;21665;40.108;18.302;2023-02-28T06:22:11;118.80;;;16.10;;
35562;SDS011;21665;40.108;18.302;2023-02-28T06:24:41;111.43;;;15.63;;
35562;SDS011;21665;40.108;18.302;2023-02-28T06:27:09;98.80;;;15.20;;
35562;SDS011;21665;40.108;18.302;2023-02-28T06:29:35;108.22;;;15.20;;
35562;SDS011;21665;40.108;18.302;2023-02-28T06:32:05;107.05;;;15.70;;
35562;SDS011;21665;40.108;18.302;2023-02-28T06:34:32;109.57;;;17.88;;
35562;SDS011;21665;40.108;18.302;2023-02-28T06:37:02;116.00;;;19.25;;
35562;SDS011;21665;40.108;18.302;2023-02-28T06:39:29;96.95;;;13.52;;
35562;SDS011;21665;40.108;18.302;2023-02-28T06:41:56;108.88;;;16.42;;
35562;SDS011;21665;40.108;18.302;2023-02-28T06:44:23;86.35;;;12.65;;
35562;SDS011;21665;40.108;18.302;2023-02-28T06:46:50;76.03;;;11.02;;
35562;SDS011;21665;40.108;18.302;2023-02-28T06:49:17;94.80;;;11.88;;
35562;SDS011;21665;40.108;18.302;2023-02-28T06:51:44;101.38;;;12.10;;
35562;SDS011;21665;40.108;18.302;2023-02-28T06:54:11;91.55;;;11.85;;
35562;SDS011;21665;40.108;18.302;2023-02-28T06:56:39;84.22;;;9.75;;
35562;SDS011;21665;40.108;18.302;2023-02-28T06:59:05;103.68;;;12.27;;
35562;SDS011;21665;40.108;18.302;2023-02-28T07:01:32;86.30;;;12.27;;
35562;SDS011;21665;40.108;18.302;2023-02-28T07:03:58;75.85;;;10.85;;
35562;SDS011;21665;40.108;18.302;2023-02-28T07:06:26;70.82;;;12.70;;
35562;SDS011;21665;40.108;18.302;2023-02-28T07:08:53;86.43;;;15.63;;
35562;SDS011;21665;40.108;18.302;2023-02-28T07:11:24;93.68;;;16.80;;
35562;SDS011;21665;40.108;18.302;2023-02-28T07:13:55;91.68;;;18.80;;
35562;SDS011;21665;40.108;18.302;2023-02-28T07:16:23;104.10;;;19.80;;
35562;SDS011;21665;40.108;18.302;2023-02-28T07:18:54;84.18;;;19.02;;
35562;SDS011;21665;40.108;18.302;2023-02-28T07:21:21;85.15;;;21.00;;
35562;SDS011;21665;40.108;18.302;2023-02-28T07:23:49;108.03;;;23.23;;
35562;SDS011;21665;40.108;18.302;2023-02-28T07:26:16;74.90;;;21.05;;
35562;SDS011;21665;40.108;18.302;2023-02-28T07:28:47;79.20;;;19.58;;
35562;SDS011;21665;40.108;18.302;2023-02-28T07:31:14;86.07;;;19.70;;
35562;SDS011;21665;40.108;18.302;2023-02-28T07:33:40;81.50;;;19.23;;
35562;SDS011;21665;40.108;18.302;2023-02-28T07:36:08;76.93;;;18.35;;
35562;SDS011;21665;40.108;18.302;2023-02-28T07:38:44;64.70;;;19.17;;
35562;SDS011;21665;40.108;18.302;2023-02-28T07:41:16;70.32;;;17.77;;
35562;SDS011;21665;40.108;18.302;2023-02-28T07:43:47;74.25;;;18.30;;
35562;SDS011;21665;40.108;18.302;2023-02-28T08:03:37;75.50;;;19.15;;
35562;SDS011;21665;40.108;18.302;2023-02-28T08:06:05;68.72;;;18.77;;
35562;SDS011;21665;40.108;18.302;2023-02-28T08:08:33;52.63;;;17.90;;
35562;SDS011;21665;40.108;18.302;2023-02-28T08:11:00;70.32;;;19.83;;
35562;SDS011;21665;40.108;18.302;2023-02-28T08:13:28;65.32;;;19.20;;
35562;SDS011;21665;40.108;18.302;2023-02-28T08:15:56;64.10;;;19.67;;
35562;SDS011;21665;40.108;18.302;2023-02-28T08:18:23;78.45;;;21.25;;
35562;SDS011;21665;40.108;18.302;2023-02-28T08:23:33;66.68;;;20.95;;
35562;SDS011;21665;40.108;18.302;2023-02-28T08:26:08;62.30;;;20.58;;
35562;SDS011;21665;40.108;18.302;2023-02-28T08:32:19;64.53;;;20.02;;
35562;SDS011;21665;40.108;18.302;2023-02-28T08:34:48;80.68;;;18.98;;
35562;SDS011;21665;40.108;18.302;2023-02-28T08:37:54;56.35;;;19.17;;
35562;SDS011;21665;40.108;18.302;2023-02-28T08:40:20;75.70;;;21.25;;
35562;SDS011;21665;40.108;18.302;2023-02-28T08:42:47;67.32;;;19.17;;
35562;SDS011;21665;40.108;18.302;2023-02-28T08:45:14;63.78;;;21.20;;
35562;SDS011;21665;40.108;18.302;2023-02-28T08:47:41;62.72;;;20.52;;
35562;SDS011;21665;40.108;18.302;2023-02-28T08:50:07;67.82;;;21.70;;
35562;SDS011;21665;40.108;18.302;2023-02-28T08:52:34;56.75;;;20.90;;
35562;SDS011;21665;40.108;18.302;2023-02-28T09:00:53;64.40;;;18.90;;
35562;SDS011;21665;40.108;18.302;2023-02-28T09:06:44;58.83;;;18.23;;
35562;SDS011;21665;40.108;18.302;2023-02-28T09:09:51;69.35;;;19.10;;
35562;SDS011;21665;40.108;18.302;2023-02-28T09:12:43;62.00;;;19.08;;
35562;SDS011;21665;40.108;18.302;2023-02-28T09:15:13;47.47;;;18.17;;
35562;SDS011;21665;40.108;18.302;2023-02-28T09:17:43;56.90;;;18.80;;
35562;SDS011;21665;40.108;18.302;2023-02-28T09:20:11;56.90;;;18.40;;
35562;SDS011;21665;40.108;18.302;2023-02-28T09:22:37;64.68;;;20.83;;
35562;SDS011;21665;40.108;18.302;2023-02-28T09:27:34;61.17;;;21.17;;
35562;SDS011;21665;40.108;18.302;2023-02-28T09:30:05;41.67;;;18.70;;
35562;SDS011;21665;40.108;18.302;2023-02-28T09:32:32;56.40;;;19.60;;
35562;SDS011;21665;40.108;18.302;2023-02-28T09:34:58;64.53;;;19.90;;
35562;SDS011;21665;40.108;18.302;2023-02-28T09:37:24;72.43;;;20.83;;
35562;SDS011;21665;40.108;18.302;2023-02-28T09:39:55;59.20;;;20.38;;
35562;SDS011;21665;40.108;18.302;2023-02-28T09:42:22;60.15;;;20.88;;
35562;SDS011;21665;40.108;18.302;2023-02-28T09:49:37;56.78;;;21.02;;
35562;SDS011;21665;40.108;18.302;2023-02-28T09:52:10;61.35;;;20.38;;
35562;SDS011;21665;40.108;18.302;2023-02-28T09:54:45;55.88;;;20.42;;
35562;SDS011;21665;40.108;18.302;2023-02-28T09:57:19;45.03;;;19.73;;
35562;SDS011;21665;40.108;18.302;2023-02-28T10:06:26;56.38;;;20.13;;
35562;SDS011;21665;40.108;18.302;2023-02-28T10:11:21;51.78;;;20.42;;
35562;SDS011;21665;40.108;18.302;2023-02-28T10:14:15;46.60;;;19.42;;
35562;SDS011;21665;40.108;18.302;2023-02-28T10:16:51;48.53;;;19.73;;
35562;SDS011;21665;40.108;18.302;2023-02-28T10:22:04;58.95;;;20.88;;
35562;SDS011;21665;40.108;18.302;2023-02-28T10:24:40;48.20;;;20.02;;
35562;SDS011;21665;40.108;18.302;2023-02-28T10:29:50;54.65;;;20.95;;
35562;SDS011;21665;40.108;18.302;2023-02-28T10:32:35;39.10;;;20.08;;
35562;SDS011;21665;40.108;18.302;2023-02-28T10:35:10;57.00;;;21.75;;
35562;SDS011;21665;40.108;18.302;2023-02-28T10:37:46;56.58;;;25.80;;
35562;SDS011;21665;40.108;18.302;2023-02-28T10:48:38;40.38;;;19.83;;
35562;SDS011;21665;40.108;18.302;2023-02-28T10:51:26;51.08;;;20.20;;
35562;SDS011;21665;40.108;18.302;2023-02-28T10:54:02;43.40;;;20.13;;
35562;SDS011;21665;40.108;18.302;2023-02-28T10:56:30;43.63;;;20.25;;
35562;SDS011;21665;40.108;18.302;2023-02-28T10:58:59;52.70;;;21.80;;
35562;SDS011;21665;40.108;18.302;2023-02-28T11:01:48;52.42;;;21.25;;
35562;SDS011;21665;40.108;18.302;2023-02-28T11:04:19;47.45;;;20.00;;
35562;SDS011;21665;40.108;18.302;2023-02-28T11:12:23;53.33;;;20.27;;
35562;SDS011;21665;40.108;18.302;2023-02-28T11:14:58;49.45;;;20.63;;
35562;SDS011;21665;40.108;18.302;2023-02-28T11:17:35;43.15;;;20.67;;
35562;SDS011;21665;40.108;18.302;2023-02-28T11:20:05;51.90;;;21.05;;
35562;SDS011;21665;40.108;18.302;2023-02-28T11:22:42;52.13;;;20.30;;
35562;SDS011;21665;40.108;18.302;2023-02-28T11:25:20;47.40;;;20.83;;
35562;SDS011;21665;40.108;18.302;2023-02-28T11:27:51;58.72;;;21.95;;
35562;SDS011;21665;40.108;18.302;2023-02-28T11:30:33;44.05;;;22.23;;
35562;SDS011;21665;40.108;18.302;2023-02-28T11:36:12;49.53;;;20.88;;
35562;SDS011;21665;40.108;18.302;2023-02-28T11:38:59;56.67;;;20.42;;
35562;SDS011;21665;40.108;18.302;2023-02-28T11:55:52;50.85;;;20.48;;
35562;SDS011;21665;40.108;18.302;2023-02-28T12:04:12;50.92;;;20.83;;
35562;SDS011;21665;40.108;18.302;2023-02-28T12:06:55;52.45;;;22.38;;
35562;SDS011;21665;40.108;18.302;2023-02-28T12:09:36;58.55;;;21.88;;
35562;SDS011;21665;40.108;18.302;2023-02-28T12:12:23;52.72;;;22.48;;
35562;SDS011;21665;40.108;18.302;2023-02-28T12:15:00;56.17;;;22.23;;
35562;SDS011;21665;40.108;18.302;2023-02-28T12:20:37;65.35;;;22.90;;
35562;SDS011;21665;40.108;18.302;2023-02-28T12:23:43;48.42;;;24.08;;
35562;SDS011;21665;40.108;18.302;2023-02-28T12:30:19;46.15;;;23.88;;
35562;SDS011;21665;40.108;18.302;2023-02-28T12:32:47;54.65;;;22.38;;
35562;SDS011;21665;40.108;18.302;2023-02-28T12:35:21;49.75;;;23.58;;
35562;SDS011;21665;40.108;18.302;2023-02-28T12:38:22;50.38;;;24.83;;
35562;SDS011;21665;40.108;18.302;2023-02-28T12:41:04;60.95;;;26.50;;
35562;SDS011;21665;40.108;18.302;2023-02-28T12:44:31;60.30;;;23.65;;
35562;SDS011;21665;40.108;18.302;2023-02-28T12:46:47;61.70;;;25.15;;
35562;SDS011;21665;40.108;18.302;2023-02-28T12:52:53;54.42;;;24.33;;
35562;SDS011;21665;40.108;18.302;2023-02-28T12:58:26;64.90;;;25.88;;
35562;SDS011;21665;40.108;18.302;2023-02-28T13:09:31;41.13;;;25.30;;
35562;SDS011;21665;40.108;18.302;2023-02-28T13:11:58;49.67;;;24.98;;
35562;SDS011;21665;40.108;18.302;2023-02-28T13:14:37;50.72;;;24.25;;
35562;SDS011;21665;40.108;18.302;2023-02-28T13:17:11;54.55;;;25.00;;
35562;SDS011;21665;40.108;18.302;2023-02-28T13:19:45;60.03;;;24.23;;
35562;SDS011;21665;40.108;18.302;2023-02-28T13:25:49;51.53;;;25.08;;
35562;SDS011;21665;40.108;18.302;2023-02-28T13:27:50;56.45;;;26.60;;
35562;SDS011;21665;40.108;18.302;2023-02-28T13:35:47;53.97;;;24.10;;
35562;SDS011;21665;40.108;18.302;2023-02-28T13:38:16;60.70;;;23.90;;
35562;SDS011;21665;40.108;18.302;2023-02-28T13:40:51;44.75;;;23.55;;
35562;SDS011;21665;40.108;18.302;2023-02-28T13:43:17;61.90;;;25.50;;
35562;SDS011;21665;40.108;18.302;2023-02-28T13:48:35;53.47;;;25.92;;
35562;SDS011;21665;40.108;18.302;2023-02-28T13:51:37;46.42;;;25.80;;
35562;SDS011;21665;40.108;18.302;2023-02-28T13:54:03;52.78;;;25.67;;
35562;SDS011;21665;40.108;18.302;2023-02-28T13:56:43;51.30;;;25.33;;
35562;SDS011;21665;40.108;18.302;2023-02-28T13:59:22;54.70;;;26.33;;
35562;SDS011;21665;40.108;18.302;2023-02-28T14:19:25;53.95;;;21.17;;
35562;SDS011;21665;40.108;18.302;2023-02-28T14:36:06;50.00;;;20.10;;
35562;SDS011;21665;40.108;18.302;2023-02-28T14:41:57;43.50;;;20.45;;
35562;SDS011;21665;40.108;18.302;2023-02-28T14:44:30;54.10;;;19.75;;
35562;SDS011;21665;40.108;18.302;2023-02-28T14:47:01;45.85;;;19.98;;
35562;SDS011;21665;40.108;18.302;2023-02-28T14:49:32;43.03;;;19.65;;
35562;SDS011;21665;40.108;18.302;2023-02-28T14:52:15;54.22;;;20.98;;
35562;SDS011;21665;40.108;18.302;2023-02-28T14:54:57;47.97;;;20.75;;
35562;SDS011;21665;40.108;18.302;2023-02-28T14:57:27;48.30;;;19.20;;
35562;SDS011;21665;40.108;18.302;2023-02-28T15:00:16;49.53;;;19.65;;
35562;SDS011;21665;40.108;18.302;2023-02-28T15:02:54;44.60;;;20.50;;
35562;SDS011;21665;40.108;18.302;2023-02-28T15:05:32;56.38;;;21.05;;
35562;SDS011;21665;40.108;18.302;2023-02-28T17:05:36;45.05;;;12.75;;
35562;SDS011;21665;40.108;18.302;2023-02-28T17:08:58;48.42;;;11.80;;
35562;SDS011;21665;40.108;18.302;2023-02-28T17:12:26;42.05;;;12.07;;
35562;SDS011;21665;40.108;18.302;2023-02-28T18:44:21;51.53;;;10.70;;
35562;SDS011;21665;40.108;18.302;2023-02-28T18:47:06;45.88;;;10.18;;
35562;SDS011;21665;40.108;18.302;2023-02-28T19:04:50;47.10;;;11.80;;
35562;SDS011;21665;40.108;18.302;2023-02-28T20:24:42;44.63;;;13.65;;
35562;SDS011;21665;40.108;18.302;2023-02-28T20:27:09;41.55;;;13.50;;
35562;SDS011;21665;40.108;18.302;2023-02-28T20:29:36;60.30;;;17.33;;
35562;SDS011;21665;40.108;18.302;2023-02-28T20:32:02;53.85;;;14.35;;
35562;SDS011;21665;40.108;18.302;2023-02-28T20:34:28;55.58;;;16.52;;
35562;SDS011;21665;40.108;18.302;2023-02-28T20:36:57;63.70;;;17.15;;
35562;SDS011;21665;40.108;18.302;2023-02-28T20:39:24;58.05;;;15.23;;
35562;SDS011;21665;40.108;18.302;2023-02-28T20:41:51;44.17;;;12.15;;
35562;SDS011;21665;40.108;18.302;2023-02-28T20:44:17;56.55;;;13.68;;
35562;SDS011;21665;40.108;18.302;2023-02-28T20:46:44;49.08;;;12.13;;
35562;SDS011;21665;40.108;18.302;2023-02-28T20:49:10;42.83;;;11.25;;
35562;SDS011;21665;40.108;18.302;2023-02-28T20:51:41;41.30;;;11.43;;
35562;SDS011;21665;40.108;18.302;2023-02-28T20:54:08;45.60;;;11.57;;
35562;SDS011;21665;40.108;18.302;2023-02-28T20:56:36;54.92;;;12.70;;
35562;SDS011;21665;40.108;18.302;2023-02-28T20:59:03;39.22;;;10.90;;
35562;SDS011;21665;40.108;18.302;2023-02-28T21:01:30;56.22;;;12.90;;
35562;SDS011;21665;40.108;18.302;2023-02-28T21:03:59;39.15;;;11.85;;
35562;SDS011;21665;40.108;18.302;2023-02-28T21:06:28;47.60;;;12.32;;
35562;SDS011;21665;40.108;18.302;2023-02-28T21:08:57;42.97;;;11.40;;
35562;SDS011;21665;40.108;18.302;2023-02-28T21:11:27;51.35;;;12.40;;
35562;SDS011;21665;40.108;18.302;2023-02-28T21:14:12;38.53;;;10.35;;
35562;SDS011;21665;40.108;18.302;2023-02-28T21:16:40;48.28;;;11.55;;
35562;SDS011;21665;40.108;18.302;2023-02-28T21:19:11;48.13;;;10.15;;
35562;SDS011;21665;40.108;18.302;2023-02-28T21:21:39;40.50;;;10.02;;
35562;SDS011;21665;40.108;18.302;2023-02-28T21:24:14;47.67;;;10.73;;
35562;SDS011;21665;40.108;18.302;2023-02-28T21:26:43;47.25;;;10.00;;
35562;SDS011;21665;40.108;18.302;2023-02-28T21:29:10;49.92;;;9.95;;
35562;SDS011;21665;40.108;18.302;2023-02-28T21:31:37;28.35;;;9.18;;
35562;SDS011;21665;40.108;18.302;2023-02-28T21:34:05;41.42;;;9.60;;
35562;SDS011;21665;40.108;18.302;2023-02-28T21:36:37;37.70;;;8.43;;
35562;SDS011;21665;40.108;18.302;2023-02-28T21:39:06;38.72;;;8.85;;
35562;SDS011;21665;40.108;18.302;2023-02-28T21:41:42;32.85;;;7.80;;
35562;SDS011;21665;40.108;18.302;2023-02-28T21:44:09;41.53;;;9.48;;
35562;SDS011;21665;40.108;18.302;2023-02-28T21:46:54;30.58;;;7.53;;
35562;SDS011;21665;40.108;18.302;2023-02-28T21:49:25;40.45;;;9.38;;
35562;SDS011;21665;40.108;18.302;2023-02-28T21:51:56;29.27;;;8.65;;
35562;SDS011;21665;40.108;18.302;2023-02-28T21:54:23;43.30;;;8.52;;
35562;SDS011;21665;40.108;18.302;2023-02-28T21:57:01;35.05;;;8.00;;
35562;SDS011;21665;40.108;18.302;2023-02-28T21:59:27;33.70;;;8.13;;
35562;SDS011;21665;40.108;18.302;2023-02-28T22:01:53;31.42;;;8.52;;
35562;SDS011;21665;40.108;18.302;2023-02-28T22:04:20;39.42;;;7.03;;
35562;SDS011;21665;40.108;18.302;2023-02-28T22:06:51;36.22;;;7.55;;
35562;SDS011;21665;40.108;18.302;2023-02-28T22:09:19;38.28;;;8.02;;
35562;SDS011;21665;40.108;18.302;2023-02-28T22:11:49;41.75;;;8.15;;
35562;SDS011;21665;40.108;18.302;2023-02-28T22:14:16;36.25;;;8.55;;
35562;SDS011;21665;40.108;18.302;2023-02-28T22:16:43;44.17;;;8.05;;
35562;SDS011;21665;40.108;18.302;2023-02-28T22:19:09;29.35;;;7.50;;
35562;SDS011;21665;40.108;18.302;2023-02-28T22:21:36;34.33;;;7.65;;
35562;SDS011;21665;40.108;18.302;2023-02-28T22:24:06;32.78;;;8.35;;
35562;SDS011;21665;40.108;18.302;2023-02-28T22:26:34;32.95;;;7.85;;
35562;SDS011;21665;40.108;18.302;2023-02-28T22:29:04;41.38;;;7.53;;
35562;SDS011;21665;40.108;18.302;2023-02-28T22:31:31;29.08;;;7.20;;
35562;SDS011;21665;40.108;18.302;2023-02-28T22:34:00;26.35;;;7.20;;
35562;SDS011;21665;40.108;18.302;2023-02-28T22:36:33;28.05;;;7.35;;
35562;SDS011;21665;40.108;18.302;2023-02-28T22:38:59;37.03;;;9.68;;
35562;SDS011;21665;40.108;18.302;2023-02-28T22:41:27;30.77;;;7.53;;
35562;SDS011;21665;40.108;18.302;2023-02-28T22:43:55;32.40;;;7.35;;
35562;SDS011;21665;40.108;18.302;2023-02-28T22:46:24;30.00;;;8.73;;
35562;SDS011;21665;40.108;18.302;2023-02-28T22:48:53;33.92;;;7.90;;
35562;SDS011;21665;40.108;18.302;2023-02-28T22:51:21;34.90;;;7.28;;
35562;SDS011;21665;40.108;18.302;2023-02-28T22:53:50;32.33;;;7.22;;
35562;SDS011;21665;40.108;18.302;2023-02-28T22:56:19;37.22;;;8.10;;
35562;SDS011;21665;40.108;18.302;2023-02-28T22:58:48;35.25;;;7.70;;
35562;SDS011;21665;40.108;18.302;2023-02-28T23:01:15;47.42;;;8.70;;